• Join FlightAware (Why Join?)
  • Login
  • US Flag 
10:17AM EST


 

Airport Tracker/Info


-or-


 

Live Flight TrackerFlight Track Log ✈ AAL963 ✈ 11-May-2013 ✈ KDFW - SBGR / GRU

Flight Track Log - Related Links

Times and Time Zones

All times are in EDT time to prevent confusion due to time zone crossing. See the AAL963 flight status page for this flight to view local times or setup timezone preferences in your user account.

Time Position Orientation Groundspeed Altitude Reporting Facility
EDT Latitude Longitude Course Direction KTS MPH feet Rate Location/Type
09:18PM 32.9390 -97.0560 345° North 2,000  Level FlightAware
09:18PM 32.9680 -97.0670 342° North 2,500 1,680 Climbing FlightAware
09:19PM 32.9820 -97.0720 343° North 2,700 1,740 Climbing FlightAware
09:19PM 33.0060 -97.0900 328° Northwest 3,500 1,740 Climbing FlightAware
09:19PM 33.0120 -97.1110 289° West 4,000 1,740 Climbing FlightAware
09:20PM 33.0080 -97.1560 264° West 5,400 1,740 Climbing FlightAware
09:20PM 33.0040 -97.1950 263° West 6,200 1,680 Climbing FlightAware
09:21PM 32.9960 -97.2380 258° West 7,200 1,680 Climbing FlightAware
09:21PM 32.9840 -97.2610 238° Southwest 7,700 1,680 Climbing FlightAware
09:21PM 32.9560 -97.2860 217° Southwest 8,600 1,680 Climbing FlightAware
09:22PM 32.9340 -97.2940 197° South 9,200 1,620 Climbing FlightAware
09:22PM 32.8780 -97.2890 176° South 10,500 1,620 Climbing FlightAware
09:23PM 32.8070 -97.2870 179° South 11,400 1,560 Climbing FlightAware
09:24PM 32.7600 -97.2710 164° South 11,900 1,620 Climbing FlightAware
09:24PM 32.7040 -97.2160 140° Southeast 13,100 1,680 Climbing FlightAware
09:25PM 32.6480 -97.1620 141° Southeast 14,200 1,680 Climbing FlightAware
09:26PM 32.5790 -97.0960 141° Southeast 15,600 1,680 Climbing FlightAware
09:26PM 32.5170 -97.0380 142° Southeast 16,900 1,680 Climbing FlightAware
09:27PM 32.4540 -96.9790 142° Southeast 18,200 1,620 Climbing FlightAware
09:28PM 32.3850 -96.9130 141° Southeast 19,500 1,500 Climbing FlightAware
09:28PM 32.3210 -96.8540 142° Southeast 20,500 1,440 Climbing FlightAware
09:29PM 32.2350 -96.7990 152° Southeast 21,500 1,440 Climbing FlightAware
09:29PM 32.1966 -96.7847 163° South 466 536 22,000 1,680 Climbing FlightAware ADS-B
09:30PM 32.1252 -96.7576 162° South 465 535 23,000 1,560 Climbing FlightAware ADS-B
09:31PM 32.0147 -96.7157 162° South 473 544 24,300 1,380 Climbing FlightAware ADS-B
09:31PM 31.9496 -96.6910 162° South 478 550 25,000 1,500 Climbing FlightAware ADS-B
09:32PM 31.8840 -96.6661 162° South 477 549 25,900 1,440 Climbing FlightAware ADS-B
09:32PM 31.8490 -96.6520 161° South 26,300 1,260 Climbing FlightAware ADS-B
09:33PM 31.7767 -96.6225 161° South 481 554 27,000 1,200 Climbing FlightAware ADS-B
09:33PM 31.7790 -96.6230 350° North 562 647 27,000 1,200 Level FlightAware ADS-B
09:33PM 31.7129 -96.5959 161° South 484 557 27,600 1,140 Climbing FlightAware ADS-B
09:33PM 31.6970 -96.5890 160° South 713 821 27,700 1,080 Climbing FlightAware ADS-B
09:34PM 31.6413 -96.5664 161° South 495 570 28,200 1,080 Climbing FlightAware ADS-B
09:34PM 31.6190 -96.5580 162° South 509 586 28,400 1,320 Climbing FlightAware ADS-B
09:34PM 31.5768 -96.5402 160° South 486 559 28,900 1,380 Climbing FlightAware ADS-B
09:35PM 31.5560 -96.5320 161° South 477 549 29,100 1,320 Climbing FlightAware ADS-B
09:35PM 31.5084 -96.5123 161° South 493 567 29,600 1,140 Climbing FlightAware ADS-B
09:35PM 31.4790 -96.5010 162° South 492 566 29,800 960 Climbing FlightAware ADS-B
09:35PM 31.4432 -96.4874 162° South 493 567 30,100 1,320 Climbing FlightAware ADS-B
09:36PM 31.4030 -96.4720 162° South 475 547 30,600 1,380 Climbing FlightAware ADS-B
09:36PM 31.3776 -96.4634 164° South 489 563 30,800 1,020 Climbing FlightAware ADS-B
09:36PM 31.3240 -96.4440 163° South 469 540 31,200 900 Climbing FlightAware ADS-B
09:36PM 31.3095 -96.4381 161° South 489 563 31,300 1,260 Climbing FlightAware ADS-B
09:37PM 31.2480 -96.4150 162° South 481 554 32,000 1,500 Climbing FlightAware ADS-B
09:37PM 31.2448 -96.4141 166° South 480 552 32,100 1,440 Climbing FlightAware ADS-B
09:37PM 31.1860 -96.3870 158° South 485 558 32,700 1,200 Climbing FlightAware ADS-B
09:37PM 31.1828 -96.3848 150° Southeast 485 558 32,700 540 Level FlightAware ADS-B
09:38PM 31.1330 -96.3340 139° Southeast 485 558 33,000 540 Climbing FlightAware ADS-B
09:38PM 31.1287 -96.3283 131° Southeast 516 594 33,000  Level FlightAware ADS-B
09:38PM 31.0870 -96.2670 128° Southeast 513 590 33,000  Level FlightAware ADS-B
09:38PM 31.0833 -96.2624 133° Southeast 519 597 33,000  Level FlightAware ADS-B
09:39PM 31.0336 -96.2006 133° Southeast 516 594 33,000  Level FlightAware ADS-B
09:39PM 31.0280 -96.1940 135° Southeast 509 586 33,000  Level FlightAware ADS-B
09:39PM 30.9823 -96.1395 134° Southeast 513 590 33,000  Level FlightAware ADS-B
09:39PM 30.9770 -96.1340 138° Southeast 526 605 33,000  Level FlightAware ADS-B
09:40PM 30.9301 -96.0784 135° Southeast 517 595 33,000  Level FlightAware ADS-B
09:40PM 30.9170 -96.0630 135° Southeast 534 615 33,000  Level FlightAware ADS-B
09:40PM 30.8776 -96.0176 135° Southeast 514 592 33,000  Level FlightAware ADS-B
09:41PM 30.8560 -95.9930 136° Southeast 528 608 33,000  Level FlightAware ADS-B
09:41PM 30.8241 -95.9560 135° Southeast 517 595 33,000  Level FlightAware ADS-B
09:41PM 30.7950 -95.9220 135° Southeast 522 601 33,000  Level FlightAware ADS-B
09:42PM 30.7722 -95.8962 136° Southeast 523 602 33,000  Level FlightAware ADS-B
09:42PM 30.7330 -95.8520 136° Southeast 510 587 33,000  Level FlightAware ADS-B
09:42PM 30.7210 -95.8375 134° Southeast 516 594 33,000  Level FlightAware ADS-B
09:42PM 30.6830 -95.7940 135° Southeast 505 581 33,000  Level FlightAware ADS-B
09:43PM 30.6699 -95.7790 135° Southeast 515 593 33,000  Level FlightAware ADS-B
09:43PM 30.6220 -95.7240 135° Southeast 498 573 33,000  Level FlightAware ADS-B
09:43PM 30.6184 -95.7199 136° Southeast 515 593 33,000  Level FlightAware ADS-B
09:44PM 30.5676 -95.6617 135° Southeast 509 586 33,000  Level FlightAware ADS-B
09:44PM 30.5600 -95.6530 135° Southeast 518 596 33,000  Level FlightAware ADS-B
09:44PM 30.5148 -95.6015 136° Southeast 517 595 33,000  Level FlightAware ADS-B
09:44PM 30.4990 -95.5830 135° Southeast 554 638 33,000  Level FlightAware ADS-B
09:45PM 30.4637 -95.5431 136° Southeast 516 594 33,000  Level FlightAware ADS-B
09:45PM 30.4380 -95.5140 136° Southeast 527 606 33,000  Level FlightAware ADS-B
09:45PM 30.4119 -95.4840 135° Southeast 516 594 33,000  Level FlightAware ADS-B
09:45PM 30.3760 -95.4430 135° Southeast 533 613 33,000  Level FlightAware ADS-B
09:46PM 30.3602 -95.4252 136° Southeast 518 596 33,000  Level FlightAware ADS-B
09:46PM 30.3260 -95.3870 136° Southeast 564 649 33,000  Level FlightAware ADS-B
09:46PM 30.3085 -95.3667 135° Southeast 519 597 33,000  Level FlightAware ADS-B
09:47PM 30.2640 -95.3160 135° Southeast 521 600 33,000  Level FlightAware ADS-B
09:47PM 30.2569 -95.3079 135° Southeast 515 593 33,000  Level FlightAware ADS-B
09:47PM 30.2059 -95.2501 136° Southeast 509 586 33,000  Level FlightAware ADS-B
09:47PM 30.2030 -95.2470 137° Southeast 519 597 33,000  Level FlightAware ADS-B
09:48PM 30.1542 -95.1916 136° Southeast 512 589 33,000  Level FlightAware ADS-B
09:48PM 30.1410 -95.1770 136° Southeast 531 611 33,000  Level FlightAware ADS-B
09:48PM 30.1031 -95.1339 135° Southeast 507 583 33,000  Level FlightAware ADS-B
09:48PM 30.0800 -95.1080 136° Southeast 509 586 33,000  Level FlightAware ADS-B
09:49PM 30.0519 -95.0762 136° Southeast 515 593 33,000  Level FlightAware ADS-B
09:49PM 30.0200 -95.0400 135° Southeast 511 588 33,000  Level FlightAware ADS-B
09:49PM 30.0004 -95.0182 136° Southeast 514 592 33,000  Level FlightAware ADS-B
09:49PM 29.9580 -94.9700 135° Southeast 531 611 33,000  Level FlightAware ADS-B
09:50PM 29.9485 -94.9598 137° Southeast 512 589 33,000  Level FlightAware ADS-B
09:50PM 29.8969 -94.9016 136° Southeast 519 597 33,000  Level FlightAware ADS-B
09:50PM 29.8970 -94.9020 286° West 498 573 33,000  Level FlightAware ADS-B
09:51PM 29.8460 -94.8450 136° Southeast 520 598 33,000  Level FlightAware ADS-B
09:51PM 29.7939 -94.7864 136° Southeast 522 601 33,000  Level FlightAware ADS-B
09:51PM 29.7840 -94.7760 138° Southeast 501 577 33,000  Level FlightAware ADS-B
09:52PM 29.7427 -94.7293 136° Southeast 513 590 33,000  Level FlightAware ADS-B
09:52PM 29.7340 -94.7200 137° Southeast 499 574 33,000  Level FlightAware ADS-B
09:52PM 29.6913 -94.6718 136° Southeast 512 589 33,000  Level FlightAware ADS-B
09:52PM 29.6840 -94.6640 137° Southeast 476 548 33,000  Level FlightAware ADS-B
09:53PM 29.6399 -94.6144 136° Southeast 510 587 33,000  Level FlightAware ADS-B
09:53PM 29.6210 -94.5930 135° Southeast 513 590 33,000  Level FlightAware ADS-B
09:53PM 29.5881 -94.5569 136° Southeast 510 587 33,000  Level FlightAware ADS-B
09:53PM 29.5720 -94.5390 136° Southeast 450 518 33,000  Level FlightAware ADS-B
09:54PM 29.5362 -94.4992 136° Southeast 524 603 33,000  Level FlightAware ADS-B
09:54PM 29.4851 -94.4424 136° Southeast 508 585 33,000  Level FlightAware ADS-B
09:54PM 29.4770 -94.4330 135° Southeast 506 582 33,000  Level FlightAware ADS-B
09:55PM 29.4334 -94.3853 136° Southeast 511 588 33,000  Level FlightAware ADS-B
09:55PM 29.4260 -94.3770 136° Southeast 497 572 33,000  Level FlightAware ADS-B
09:55PM 29.3812 -94.3274 136° Southeast 503 579 33,000  Level FlightAware ADS-B
09:55PM 29.3650 -94.3090 135° Southeast 535 616 33,000  Level FlightAware ADS-B
09:56PM 29.3297 -94.2699 136° Southeast 517 595 33,000  Level FlightAware ADS-B
09:56PM 29.3150 -94.2530 135° Southeast 507 583 33,000  Level FlightAware ADS-B
09:56PM 29.2793 -94.2134 136° Southeast 508 585 33,000  Level FlightAware ADS-B
09:57PM 29.2283 -94.1564 136° Southeast 509 586 33,000  Level FlightAware ADS-B
09:57PM 29.1654 -94.0868 136° Southeast 508 585 33,000  Level FlightAware ADS-B
09:58PM 29.1294 -94.0500 136° Southeast 510 587 33,000  Level Houston Center
09:59PM 29.0286 -93.9378 136° Southeast 508 585 33,000  Level Houston Center
10:00PM 28.9150 -93.8142 136° Southeast 508 585 33,000  Level Houston Center
10:01PM 28.8042 -93.6931 136° Southeast 509 586 33,000  Level Houston Center
10:02PM 28.7008 -93.5808 136° Southeast 511 588 33,000  Level Houston Center
10:03PM 28.6078 -93.4783 136° Southeast 512 589 33,000  Level Houston Center
10:04PM 28.4958 -93.3550 136° Southeast 514 592 33,000  Level Houston Center
10:05PM 28.3919 -93.2433 137° Southeast 515 593 33,000 -60 Level Houston Center
10:06PM 28.2983 -93.1411 136° Southeast 516 594 32,900  Descending Houston Center
10:07PM 28.1936 -93.0283 136° Southeast 519 597 33,000  Climbing Houston Center
10:12PM 27.6021 -92.3909 136° Southeast 517 595 33,000 -60 Level FlightAware ADS-B
10:13PM 27.5469 -92.3400 136° Southeast 518 596 32,900  Descending Houston Center
10:14PM 27.4425 -92.2292 137° Southeast 519 597 33,000  Climbing Houston Center
10:15PM 27.3378 -92.1197 137° Southeast 516 594 32,900 240 Descending Houston Center
10:16PM 27.2325 -92.0097 137° Southeast 516 594 33,600 480 Climbing Houston Center
10:17PM 27.1253 -91.9067 139° Southeast 511 588 33,900 120 Climbing Houston Center
10:18PM 27.0117 -91.8172 145° Southeast 503 579 33,900  Level Houston Center
10:19PM 26.8889 -91.7189 144° Southeast 504 580 33,900  Level Houston Center
10:20PM 26.7658 -91.6192 144° Southeast 504 580 33,900  Level Houston Center
10:22PM 26.6089 -91.4988 143° Southeast  Level FlightAware Approximate
10:29PM 25.8524 -90.8924 145° Southeast  Level FlightAware Approximate
10:30PM 25.7435 -90.8073 145° Southeast  Level FlightAware Approximate
10:31PM 25.6345 -90.7225 145° Southeast  Level FlightAware Approximate
10:32PM 25.5255 -90.6378 145° Southeast  Level FlightAware Approximate
10:33PM 25.4165 -90.5532 145° Southeast  Level FlightAware Approximate
10:34PM 25.3074 -90.4688 145° Southeast  Level FlightAware Approximate
10:35PM 25.1982 -90.3846 145° Southeast  Level FlightAware Approximate
10:36PM 25.0890 -90.3005 145° Southeast  Level FlightAware Approximate
10:37PM 24.9797 -90.2165 145° Southeast  Level FlightAware Approximate
10:38PM 24.8705 -90.1327 145° Southeast  Level FlightAware Approximate
10:39PM 24.7611 -90.0490 145° Southeast  Level FlightAware Approximate
10:40PM 24.6517 -89.9655 145° Southeast  Level FlightAware Approximate
10:41PM 24.5423 -89.8822 145° Southeast  Level FlightAware Approximate
10:42PM 24.4341 -89.7972 146° Southeast  Level FlightAware Approximate
10:43PM 24.3234 -89.7161 146° Southeast  Level FlightAware Approximate
10:44PM 24.2126 -89.6352 146° Southeast  Level FlightAware Approximate
10:45PM 24.1018 -89.5544 146° Southeast  Level FlightAware Approximate
10:46PM 23.9917 -89.4724 145° Southeast  Level FlightAware Approximate
10:47PM 23.8824 -89.3893 145° Southeast  Level FlightAware Approximate
10:47PM 23.7220 -89.2330 145° Southeast 35,000  Level FlightAware
10:48PM 23.6430 -89.1580 139° Southeast 35,000  Level FlightAware
10:48PM 23.5740 -89.0940 140° Southeast 35,000  Level FlightAware
10:49PM 23.4990 -89.0240 139° Southeast 35,000  Level FlightAware
10:50PM 23.4120 -88.9430 139° Southeast 35,000  Level FlightAware
10:50PM 23.3400 -88.8760 139° Southeast 35,000  Level FlightAware
10:51PM 23.2600 -88.8010 139° Southeast 35,000  Level FlightAware
10:52PM 23.1870 -88.7340 140° Southeast 35,000  Level FlightAware
10:52PM 23.1150 -88.6680 140° Southeast 35,000  Level FlightAware
10:53PM 23.0310 -88.5900 139° Southeast 35,000  Level FlightAware
10:54PM 22.9600 -88.5250 140° Southeast 35,000  Level FlightAware
10:55PM 22.8800 -88.4510 140° Southeast 35,000  Level FlightAware
10:55PM 22.8080 -88.3850 140° Southeast 35,000  Level FlightAware
10:56PM 22.7370 -88.3190 139° Southeast 35,000  Level FlightAware
10:57PM 22.6530 -88.2410 139° Southeast 35,000  Level FlightAware
10:57PM 22.5800 -88.1750 140° Southeast 35,000  Level FlightAware
10:58PM 22.5010 -88.1030 140° Southeast 35,000  Level FlightAware
10:59PM 22.4310 -88.0380 139° Southeast 35,000  Level FlightAware
10:59PM 22.3570 -87.9710 140° Southeast 35,000  Level FlightAware
11:00PM 22.2750 -87.8960 140° Southeast 35,000  Level FlightAware
11:01PM 22.2040 -87.8310 140° Southeast 35,000  Level FlightAware
11:02PM 22.1250 -87.7590 140° Southeast 35,000  Level FlightAware
11:02PM 22.0530 -87.6940 140° Southeast 35,000  Level FlightAware
11:03PM 21.9790 -87.6270 140° Southeast 35,000  Level FlightAware
11:04PM 21.8990 -87.5540 140° Southeast 35,000  Level FlightAware
11:04PM 21.8230 -87.4850 140° Southeast 35,000  Level FlightAware
11:05PM 21.7460 -87.4150 140° Southeast 35,000  Level FlightAware
11:06PM 21.6720 -87.3490 140° Southeast 35,000  Level FlightAware
11:06PM 21.6000 -87.2840 140° Southeast 35,000  Level FlightAware
11:07PM 21.5180 -87.2100 140° Southeast 35,000  Level FlightAware
11:08PM 21.4470 -87.1460 140° Southeast 35,000  Level FlightAware
11:08PM 21.3730 -87.0800 140° Southeast 35,000  Level FlightAware
11:09PM 21.2950 -87.0100 140° Southeast 35,000  Level FlightAware
11:10PM 21.2210 -86.9430 140° Southeast 35,000  Level FlightAware
11:11PM 21.1410 -86.8720 140° Southeast 35,000  Level FlightAware
11:11PM 21.0670 -86.8060 140° Southeast 35,000  Level FlightAware
11:12PM 20.9860 -86.7330 140° Southeast 35,000  Level FlightAware
11:13PM 20.9180 -86.6730 141° Southeast 35,000  Level FlightAware
11:13PM 20.8400 -86.6030 140° Southeast 35,000  Level FlightAware
11:14PM 20.7570 -86.5300 141° Southeast 35,000  Level FlightAware
11:15PM 20.6850 -86.4650 140° Southeast 35,000  Level FlightAware
11:17PM 20.5168 -86.2996 137° Southeast  Level FlightAware Approximate
11:18PM 20.4198 -86.2023 137° Southeast  Level FlightAware Approximate
11:19PM 20.3227 -86.1052 137° Southeast  Level FlightAware Approximate
11:20PM 20.2256 -86.0082 137° Southeast  Level FlightAware Approximate
11:21PM 20.1284 -85.9113 137° Southeast  Level FlightAware Approximate
11:22PM 20.0311 -85.8145 137° Southeast  Level FlightAware Approximate
11:23PM 19.9343 -85.7173 137° Southeast  Level FlightAware Approximate
11:24PM 19.8373 -85.6203 137° Southeast  Level FlightAware Approximate
11:25PM 19.7404 -85.5234 137° Southeast  Level FlightAware Approximate
11:26PM 19.6433 -85.4266 137° Southeast  Level FlightAware Approximate
11:27PM 19.5462 -85.3299 137° Southeast  Level FlightAware Approximate
11:28PM 19.4490 -85.2334 137° Southeast  Level FlightAware Approximate
11:29PM 19.3518 -85.1370 137° Southeast  Level FlightAware Approximate
11:30PM 19.2545 -85.0408 137° Southeast  Level FlightAware Approximate
11:31PM 19.1571 -84.9446 137° Southeast  Level FlightAware Approximate
11:32PM 19.0597 -84.8485 137° Southeast  Level FlightAware Approximate
11:33PM 18.9623 -84.7526 137° Southeast  Level FlightAware Approximate
11:34PM 18.8648 -84.6568 137° Southeast  Level FlightAware Approximate
11:35PM 18.7673 -84.5611 137° Southeast  Level FlightAware Approximate
11:36PM 18.6697 -84.4655 137° Southeast  Level FlightAware Approximate
11:37PM 18.5721 -84.3700 137° Southeast  Level FlightAware Approximate
11:38PM 18.4744 -84.2746 137° Southeast  Level FlightAware Approximate
11:39PM 18.3772 -84.1787 137° Southeast  Level FlightAware Approximate
11:40PM 18.2799 -84.0831 137° Southeast  Level FlightAware Approximate
11:41PM 18.1825 -83.9874 137° Southeast  Level FlightAware Approximate
11:42PM 18.0851 -83.8920 137° Southeast  Level FlightAware Approximate
11:43PM 17.9877 -83.7966 137° Southeast  Level FlightAware Approximate
11:44PM 17.8902 -83.7013 137° Southeast  Level FlightAware Approximate
11:45PM 17.7927 -83.6061 137° Southeast  Level FlightAware Approximate
11:46PM 17.6951 -83.5111 137° Southeast  Level FlightAware Approximate
11:47PM 17.5975 -83.4161 137° Southeast  Level FlightAware Approximate
11:48PM 17.4998 -83.3212 137° Southeast  Level FlightAware Approximate
11:49PM 17.4021 -83.2265 137° Southeast  Level FlightAware Approximate
11:50PM 17.3043 -83.1318 137° Southeast  Level FlightAware Approximate
11:51PM 17.2065 -83.0372 137° Southeast  Level FlightAware Approximate
11:52PM 17.1087 -82.9428 137° Southeast  Level FlightAware Approximate
11:53PM 17.0108 -82.8484 137° Southeast  Level FlightAware Approximate
11:54PM 16.9128 -82.7542 137° Southeast  Level FlightAware Approximate
11:55PM 16.8148 -82.6600 137° Southeast  Level FlightAware Approximate
11:56PM 16.7168 -82.5659 137° Southeast  Level FlightAware Approximate
11:57PM 16.6187 -82.4720 137° Southeast  Level FlightAware Approximate
11:58PM 16.5206 -82.3781 137° Southeast  Level FlightAware Approximate
11:59PM 16.4225 -82.2843 137° Southeast  Level FlightAware Approximate
12:00AM 16.3243 -82.1906 138° Southeast  Level FlightAware Approximate
12:01AM 16.2257 -82.0974 138° Southeast  Level FlightAware Approximate
12:02AM 16.1271 -82.0043 138° Southeast  Level FlightAware Approximate
12:03AM 16.0284 -81.9114 138° Southeast  Level FlightAware Approximate
12:04AM 15.9297 -81.8185 138° Southeast  Level FlightAware Approximate
12:05AM 15.8309 -81.7257 138° Southeast  Level FlightAware Approximate
12:06AM 15.7321 -81.6330 138° Southeast  Level FlightAware Approximate
12:07AM 15.6332 -81.5404 138° Southeast  Level FlightAware Approximate
12:08AM 15.5344 -81.4479 138° Southeast  Level FlightAware Approximate
12:09AM 15.4354 -81.3554 138° Southeast  Level FlightAware Approximate
12:10AM 15.3365 -81.2631 138° Southeast  Level FlightAware Approximate
12:11AM 15.2375 -81.1708 138° Southeast  Level FlightAware Approximate
12:12AM 15.1384 -81.0787 138° Southeast  Level FlightAware Approximate
12:13AM 15.0397 -80.9869 138° Southeast  Level FlightAware Approximate
12:14AM 14.9410 -80.8952 138° Southeast  Level FlightAware Approximate
12:15AM 14.8422 -80.8035 138° Southeast  Level FlightAware Approximate
12:16AM 14.7434 -80.7119 138° Southeast  Level FlightAware Approximate
12:17AM 14.6446 -80.6205 138° Southeast  Level FlightAware Approximate
12:18AM 14.5457 -80.5291 138° Southeast  Level FlightAware Approximate
12:19AM 14.4468 -80.4377 138° Southeast  Level FlightAware Approximate
12:20AM 14.3478 -80.3465 138° Southeast  Level FlightAware Approximate
12:21AM 14.2488 -80.2553 138° Southeast  Level FlightAware Approximate
12:22AM 14.1498 -80.1643 138° Southeast  Level FlightAware Approximate
12:23AM 14.0508 -80.0733 138° Southeast  Level FlightAware Approximate
12:24AM 13.9517 -79.9823 138° Southeast  Level FlightAware Approximate
12:25AM 13.8526 -79.8915 138° Southeast  Level FlightAware Approximate
12:26AM 13.7534 -79.8007 138° Southeast  Level FlightAware Approximate
12:27AM 13.6542 -79.7101 138° Southeast  Level FlightAware Approximate
12:28AM 13.5550 -79.6194 138° Southeast  Level FlightAware Approximate
12:29AM 13.4558 -79.5289 138° Southeast  Level FlightAware Approximate
12:30AM 13.3565 -79.4384 138° Southeast  Level FlightAware Approximate
12:31AM 13.2572 -79.3481 138° Southeast  Level FlightAware Approximate
12:32AM 13.1578 -79.2577 138° Southeast  Level FlightAware Approximate
12:33AM 13.0584 -79.1675 139° Southeast  Level FlightAware Approximate
12:34AM 12.9590 -79.0773 139° Southeast  Level FlightAware Approximate
12:35AM 12.8596 -78.9872 139° Southeast  Level FlightAware Approximate
12:36AM 12.7601 -78.8972 139° Southeast  Level FlightAware Approximate
12:37AM 12.6606 -78.8073 139° Southeast  Level FlightAware Approximate
12:38AM 12.5611 -78.7174 139° Southeast  Level FlightAware Approximate
12:39AM 12.4615 -78.6276 139° Southeast  Level FlightAware Approximate
12:40AM 12.3619 -78.5378 139° Southeast  Level FlightAware Approximate
12:41AM 12.2623 -78.4482 139° Southeast  Level FlightAware Approximate
12:42AM 12.1627 -78.3585 139° Southeast  Level FlightAware Approximate
12:43AM 12.0630 -78.2690 139° Southeast  Level FlightAware Approximate
12:44AM 11.9633 -78.1795 139° Southeast  Level FlightAware Approximate
12:45AM 11.8636 -78.0901 139° Southeast  Level FlightAware Approximate
12:46AM 11.7638 -78.0008 139° Southeast  Level FlightAware Approximate
12:47AM 11.6640 -77.9115 139° Southeast  Level FlightAware Approximate
12:48AM 11.5642 -77.8223 139° Southeast  Level FlightAware Approximate
12:48AM 10.9610 -77.4050 139° Southeast 35,000  Level FlightAware
12:48AM 10.8920 -77.3430 139° Southeast 35,000  Level FlightAware
12:49AM 10.8000 -77.2560 137° Southeast 35,000  Level FlightAware
12:50AM 10.7490 -77.2090 138° Southeast 35,000  Level FlightAware
12:51AM 10.5820 -77.0540 138° Southeast 35,000  Level FlightAware
12:52AM 10.5230 -76.9990 137° Southeast 35,000  Level FlightAware
12:53AM 10.4430 -76.9240 137° Southeast 35,000  Level FlightAware
12:53AM 10.3900 -76.8750 138° Southeast 35,000  Level FlightAware
12:54AM 10.3060 -76.7970 138° Southeast 35,000  Level FlightAware
12:55AM 10.2450 -76.7400 137° Southeast 35,000  Level FlightAware
12:56AM 10.1620 -76.6640 138° Southeast 35,000  Level FlightAware
12:56AM 10.0960 -76.6030 138° Southeast 35,000  Level FlightAware
12:57AM 10.0300 -76.5420 138° Southeast 35,000  Level FlightAware
12:58AM 9.9440 -76.4620 137° Southeast 35,000  Level FlightAware
12:59AM 9.8640 -76.3890 138° Southeast 35,000  Level FlightAware
12:59AM 9.7800 -76.3110 138° Southeast 35,000  Level FlightAware
01:00AM 9.7120 -76.2480 138° Southeast 35,000  Level FlightAware
01:01AM 9.6490 -76.1900 138° Southeast 35,000  Level FlightAware
01:03AM 9.4714 -76.0281 138° Southeast  Level FlightAware Approximate
01:04AM 9.3727 -75.9382 138° Southeast  Level FlightAware Approximate
01:05AM 9.2740 -75.8484 138° Southeast  Level FlightAware Approximate
01:06AM 9.1753 -75.7586 138° Southeast  Level FlightAware Approximate
01:07AM 9.0765 -75.6689 138° Southeast  Level FlightAware Approximate
01:08AM 8.9778 -75.5792 138° Southeast  Level FlightAware Approximate
01:09AM 8.8790 -75.4896 138° Southeast  Level FlightAware Approximate
01:10AM 8.7801 -75.4000 138° Southeast  Level FlightAware Approximate
01:11AM 8.6813 -75.3105 138° Southeast  Level FlightAware Approximate
01:12AM 8.5824 -75.2210 138° Southeast  Level FlightAware Approximate
01:13AM 8.4836 -75.1316 138° Southeast  Level FlightAware Approximate
01:14AM 8.3847 -75.0422 138° Southeast  Level FlightAware Approximate
01:15AM 8.2857 -74.9528 138° Southeast  Level FlightAware Approximate
01:16AM 8.1868 -74.8635 138° Southeast  Level FlightAware Approximate
01:17AM 8.0878 -74.7743 138° Southeast  Level FlightAware Approximate
01:18AM 7.9889 -74.6851 138° Southeast  Level FlightAware Approximate
01:19AM 7.8899 -74.5959 138° Southeast  Level FlightAware Approximate
01:20AM 7.7908 -74.5068 138° Southeast  Level FlightAware Approximate
01:21AM 7.6921 -74.4165 138° Southeast  Level FlightAware Approximate
01:22AM 7.5938 -74.3266 138° Southeast  Level FlightAware Approximate
01:23AM 7.4954 -74.2367 138° Southeast  Level FlightAware Approximate
01:24AM 7.3971 -74.1469 138° Southeast  Level FlightAware Approximate
01:25AM 7.2987 -74.0572 138° Southeast  Level FlightAware Approximate
01:26AM 7.2004 -73.9674 138° Southeast  Level FlightAware Approximate
01:27AM 7.1020 -73.8777 138° Southeast  Level FlightAware Approximate
01:28AM 7.0012 -73.7916 152° Southeast  Level FlightAware Approximate
01:29AM 6.8847 -73.7281 152° Southeast  Level FlightAware Approximate
01:30AM 6.7681 -73.6648 152° Southeast  Level FlightAware Approximate
01:31AM 6.6516 -73.6014 152° Southeast  Level FlightAware Approximate
01:32AM 6.5351 -73.5381 152° Southeast  Level FlightAware Approximate
01:33AM 6.4185 -73.4748 152° Southeast  Level FlightAware Approximate
01:34AM 6.3020 -73.4115 152° Southeast  Level FlightAware Approximate
01:35AM 6.1854 -73.3483 152° Southeast  Level FlightAware Approximate
01:36AM 6.0688 -73.2852 152° Southeast  Level FlightAware Approximate
01:37AM 5.9522 -73.2220 152° Southeast  Level FlightAware Approximate
01:38AM 5.8356 -73.1589 152° Southeast  Level FlightAware Approximate
01:39AM 5.7190 -73.0958 152° Southeast  Level FlightAware Approximate
01:40AM 5.6023 -73.0328 152° Southeast  Level FlightAware Approximate
01:41AM 5.4857 -72.9698 152° Southeast  Level FlightAware Approximate
01:42AM 5.3691 -72.9068 152° Southeast  Level FlightAware Approximate
01:43AM 5.2524 -72.8438 152° Southeast  Level FlightAware Approximate
01:44AM 5.1358 -72.7808 152° Southeast  Level FlightAware Approximate
01:45AM 5.0191 -72.7179 152° Southeast  Level FlightAware Approximate
01:46AM 4.9025 -72.6550 152° Southeast  Level FlightAware Approximate
01:47AM 4.7858 -72.5921 152° Southeast  Level FlightAware Approximate
01:48AM 4.6691 -72.5293 152° Southeast  Level FlightAware Approximate
01:49AM 4.5524 -72.4664 152° Southeast  Level FlightAware Approximate
01:50AM 4.4358 -72.4036 152° Southeast  Level FlightAware Approximate
01:51AM 4.3191 -72.3408 152° Southeast  Level FlightAware Approximate
01:52AM 4.2024 -72.2780 152° Southeast  Level FlightAware Approximate
01:53AM 4.0857 -72.2152 152° Southeast  Level FlightAware Approximate
01:54AM 3.9690 -72.1525 152° Southeast  Level FlightAware Approximate
01:55AM 3.8581 -72.0803 145° Southeast  Level FlightAware Approximate
01:56AM 3.7499 -72.0041 145° Southeast  Level FlightAware Approximate
01:57AM 3.6418 -71.9279 145° Southeast  Level FlightAware Approximate
01:58AM 3.5336 -71.8517 145° Southeast  Level FlightAware Approximate
01:59AM 3.4255 -71.7756 145° Southeast  Level FlightAware Approximate
02:00AM 3.3173 -71.6994 145° Southeast  Level FlightAware Approximate
02:01AM 3.2092 -71.6233 145° Southeast  Level FlightAware Approximate
02:02AM 3.1010 -71.5472 145° Southeast  Level FlightAware Approximate
02:03AM 2.9928 -71.4711 145° Southeast  Level FlightAware Approximate
02:04AM 2.8846 -71.3951 145° Southeast  Level FlightAware Approximate
02:05AM 2.7764 -71.3190 145° Southeast  Level FlightAware Approximate
02:06AM 2.6682 -71.2430 145° Southeast  Level FlightAware Approximate
02:07AM 2.5600 -71.1669 145° Southeast  Level FlightAware Approximate
02:08AM 2.4519 -71.0908 145° Southeast  Level FlightAware Approximate
02:09AM 2.3438 -71.0146 145° Southeast  Level FlightAware Approximate
02:10AM 2.2357 -70.9385 145° Southeast  Level FlightAware Approximate
02:11AM 2.1276 -70.8624 145° Southeast  Level FlightAware Approximate
02:12AM 2.0194 -70.7863 145° Southeast  Level FlightAware Approximate
02:13AM 1.9113 -70.7102 145° Southeast  Level FlightAware Approximate
02:14AM 1.8032 -70.6341 145° Southeast  Level FlightAware Approximate
02:15AM 1.6951 -70.5580 145° Southeast  Level FlightAware Approximate
02:16AM 1.5869 -70.4820 145° Southeast  Level FlightAware Approximate
02:17AM 1.4788 -70.4059 145° Southeast  Level FlightAware Approximate
02:18AM 1.3706 -70.3299 145° Southeast  Level FlightAware Approximate
02:19AM 1.2625 -70.2538 145° Southeast  Level FlightAware Approximate
02:20AM 1.1612 -70.1691 138° Southeast  Level FlightAware Approximate
02:21AM 1.0625 -70.0812 138° Southeast  Level FlightAware Approximate
02:22AM 0.9638 -69.9932 138° Southeast  Level FlightAware Approximate
02:23AM 0.8650 -69.9053 138° Southeast  Level FlightAware Approximate
02:24AM 0.7663 -69.8174 138° Southeast  Level FlightAware Approximate
02:25AM 0.6675 -69.7295 138° Southeast  Level FlightAware Approximate
02:26AM 0.5688 -69.6416 138° Southeast  Level FlightAware Approximate
02:27AM 0.4701 -69.5537 138° Southeast  Level FlightAware Approximate
02:28AM 0.3713 -69.4658 138° Southeast  Level FlightAware Approximate
02:29AM 0.2726 -69.3779 138° Southeast  Level FlightAware Approximate
02:30AM 0.1738 -69.2900 138° Southeast  Level FlightAware Approximate
02:31AM 0.0751 -69.2021 138° Southeast  Level FlightAware Approximate
02:32AM -0.0236 -69.1142 138° Southeast  Level FlightAware Approximate
02:33AM -0.1224 -69.0263 138° Southeast  Level FlightAware Approximate
02:34AM -0.2211 -68.9384 138° Southeast  Level FlightAware Approximate
02:35AM -0.3199 -68.8505 138° Southeast  Level FlightAware Approximate
02:36AM -0.4186 -68.7626 138° Southeast  Level FlightAware Approximate
02:37AM -0.5173 -68.6747 138° Southeast  Level FlightAware Approximate
02:38AM -0.6161 -68.5868 138° Southeast  Level FlightAware Approximate
02:39AM -0.7148 -68.4989 138° Southeast  Level FlightAware Approximate
02:40AM -0.8136 -68.4110 138° Southeast  Level FlightAware Approximate
02:41AM -0.9123 -68.3231 138° Southeast  Level FlightAware Approximate
02:42AM -1.0110 -68.2352 138° Southeast  Level FlightAware Approximate
02:43AM -1.1098 -68.1473 138° Southeast  Level FlightAware Approximate
02:44AM -1.2085 -68.0593 138° Southeast  Level FlightAware Approximate
02:45AM -1.3072 -67.9714 138° Southeast  Level FlightAware Approximate
02:46AM -1.4059 -67.8835 138° Southeast  Level FlightAware Approximate
02:47AM -1.5046 -67.7955 138° Southeast  Level FlightAware Approximate
02:48AM -1.6034 -67.7076 138° Southeast  Level FlightAware Approximate
02:49AM -1.7021 -67.6196 138° Southeast  Level FlightAware Approximate
02:50AM -1.8008 -67.5316 138° Southeast  Level FlightAware Approximate
02:51AM -1.8995 -67.4436 138° Southeast  Level FlightAware Approximate
02:52AM -1.9982 -67.3556 138° Southeast  Level FlightAware Approximate
02:53AM -2.0969 -67.2676 138° Southeast  Level FlightAware Approximate
02:54AM -2.1955 -67.1796 138° Southeast  Level FlightAware Approximate
02:55AM -2.2942 -67.0916 138° Southeast  Level FlightAware Approximate
02:56AM -2.3929 -67.0035 138° Southeast  Level FlightAware Approximate
02:57AM -2.4916 -66.9155 138° Southeast  Level FlightAware Approximate
02:58AM -2.5903 -66.8274 138° Southeast  Level FlightAware Approximate
02:59AM -2.6889 -66.7393 138° Southeast  Level FlightAware Approximate
03:00AM -2.7876 -66.6512 138° Southeast  Level FlightAware Approximate
03:01AM -2.8862 -66.5631 138° Southeast  Level FlightAware Approximate
03:02AM -2.9848 -66.4750 138° Southeast  Level FlightAware Approximate
03:03AM -3.0835 -66.3868 138° Southeast  Level FlightAware Approximate
03:04AM -3.1821 -66.2987 138° Southeast  Level FlightAware Approximate
03:05AM -3.2807 -66.2105 138° Southeast  Level FlightAware Approximate
03:06AM -3.3793 -66.1223 138° Southeast  Level FlightAware Approximate
03:07AM -3.4779 -66.0341 138° Southeast  Level FlightAware Approximate
03:08AM -3.5765 -65.9459 138° Southeast  Level FlightAware Approximate
03:09AM -3.6751 -65.8576 138° Southeast  Level FlightAware Approximate
03:10AM -3.7737 -65.7694 138° Southeast  Level FlightAware Approximate
03:11AM -3.8723 -65.6811 138° Southeast  Level FlightAware Approximate
03:12AM -3.9708 -65.5928 138° Southeast  Level FlightAware Approximate
03:13AM -4.0694 -65.5044 138° Southeast  Level FlightAware Approximate
03:14AM -4.1679 -65.4161 138° Southeast  Level FlightAware Approximate
03:15AM -4.2664 -65.3277 138° Southeast  Level FlightAware Approximate
03:16AM -4.3650 -65.2393 138° Southeast  Level FlightAware Approximate
03:17AM -4.4635 -65.1509 138° Southeast  Level FlightAware Approximate
03:18AM -4.5620 -65.0625 138° Southeast  Level FlightAware Approximate
03:19AM -4.6605 -64.9740 138° Southeast  Level FlightAware Approximate
03:20AM -4.7590 -64.8855 138° Southeast  Level FlightAware Approximate
03:21AM -4.8574 -64.7970 138° Southeast  Level FlightAware Approximate
03:22AM -4.9559 -64.7085 138° Southeast  Level FlightAware Approximate
03:23AM -5.0543 -64.6199 138° Southeast  Level FlightAware Approximate
03:24AM -5.1527 -64.5313 138° Southeast  Level FlightAware Approximate
03:25AM -5.2512 -64.4427 138° Southeast  Level FlightAware Approximate
03:26AM -5.3496 -64.3540 138° Southeast  Level FlightAware Approximate
03:27AM -5.4480 -64.2653 138° Southeast  Level FlightAware Approximate
03:28AM -5.5463 -64.1766 138° Southeast  Level FlightAware Approximate
03:29AM -5.6447 -64.0879 138° Southeast  Level FlightAware Approximate
03:30AM -5.7431 -63.9991 138° Southeast  Level FlightAware Approximate
03:31AM -5.8414 -63.9103 138° Southeast  Level FlightAware Approximate
03:32AM -5.9397 -63.8215 138° Southeast  Level FlightAware Approximate
03:33AM -6.0380 -63.7326 138° Southeast  Level FlightAware Approximate
03:34AM -6.1363 -63.6437 138° Southeast  Level FlightAware Approximate
03:35AM -6.2346 -63.5548 138° Southeast  Level FlightAware Approximate
03:36AM -6.3329 -63.4659 138° Southeast  Level FlightAware Approximate
03:37AM -6.4311 -63.3769 138° Southeast  Level FlightAware Approximate
03:38AM -6.5294 -63.2878 138° Southeast  Level FlightAware Approximate
03:39AM -6.6276 -63.1988 138° Southeast  Level FlightAware Approximate
03:40AM -6.7258 -63.1097 138° Southeast  Level FlightAware Approximate
03:41AM -6.8240 -63.0205 138° Southeast  Level FlightAware Approximate
03:42AM -6.9222 -62.9314 138° Southeast  Level FlightAware Approximate
03:43AM -7.0203 -62.8422 138° Southeast  Level FlightAware Approximate
03:44AM -7.1185 -62.7529 138° Southeast  Level FlightAware Approximate
03:45AM -7.2166 -62.6636 138° Southeast  Level FlightAware Approximate
03:46AM -7.3147 -62.5743 138° Southeast  Level FlightAware Approximate
03:47AM -7.4128 -62.4850 138° Southeast  Level FlightAware Approximate
03:48AM -7.5109 -62.3955 138° Southeast  Level FlightAware Approximate
03:49AM -7.6089 -62.3061 138° Southeast  Level FlightAware Approximate
03:50AM -7.7069 -62.2166 138° Southeast  Level FlightAware Approximate
03:51AM -7.8050 -62.1271 138° Southeast  Level FlightAware Approximate
03:52AM -7.9030 -62.0375 138° Southeast  Level FlightAware Approximate
03:53AM -8.0009 -61.9479 138° Southeast  Level FlightAware Approximate
03:54AM -8.0989 -61.8583 138° Southeast  Level FlightAware Approximate
03:55AM -8.1968 -61.7686 138° Southeast  Level FlightAware Approximate
03:56AM -8.2944 -61.6792 138° Southeast  Level FlightAware Approximate
03:57AM -8.3920 -61.5897 138° Southeast  Level FlightAware Approximate
03:58AM -8.4895 -61.5002 138° Southeast  Level FlightAware Approximate
03:59AM -8.5870 -61.4106 138° Southeast  Level FlightAware Approximate
04:00AM -8.6845 -61.3210 138° Southeast  Level FlightAware Approximate
04:01AM -8.7820 -61.2314 138° Southeast  Level FlightAware Approximate
04:02AM -8.8794 -61.1417 138° Southeast  Level FlightAware Approximate
04:03AM -8.9768 -61.0519 138° Southeast  Level FlightAware Approximate
04:04AM -9.0743 -60.9621 138° Southeast  Level FlightAware Approximate
04:05AM -9.1716 -60.8723 138° Southeast  Level FlightAware Approximate
04:06AM -9.2690 -60.7824 138° Southeast  Level FlightAware Approximate
04:07AM -9.3663 -60.6925 138° Southeast  Level FlightAware Approximate
04:08AM -9.4636 -60.6025 138° Southeast  Level FlightAware Approximate
04:09AM -9.5609 -60.5124 138° Southeast  Level FlightAware Approximate
04:10AM -9.6582 -60.4224 138° Southeast  Level FlightAware Approximate
04:11AM -9.7555 -60.3322 138° Southeast  Level FlightAware Approximate
04:12AM -9.8527 -60.2420 138° Southeast  Level FlightAware Approximate
04:13AM -9.9499 -60.1517 138° Southeast  Level FlightAware Approximate
04:14AM -10.0471 -60.0614 138° Southeast  Level FlightAware Approximate
04:15AM -10.1442 -59.9711 138° Southeast  Level FlightAware Approximate
04:16AM -10.2413 -59.8807 138° Southeast  Level FlightAware Approximate
04:17AM -10.3386 -59.7900 137° Southeast  Level FlightAware Approximate
04:18AM -10.4359 -59.6993 137° Southeast  Level FlightAware Approximate
04:19AM -10.5331 -59.6086 137° Southeast  Level FlightAware Approximate
04:20AM -10.6303 -59.5178 137° Southeast  Level FlightAware Approximate
04:21AM -10.7275 -59.4269 137° Southeast  Level FlightAware Approximate
04:22AM -10.8246 -59.3360 137° Southeast  Level FlightAware Approximate
04:23AM -10.9217 -59.2450 137° Southeast  Level FlightAware Approximate
04:24AM -11.0188 -59.1540 137° Southeast  Level FlightAware Approximate
04:25AM -11.1159 -59.0629 137° Southeast  Level FlightAware Approximate
04:26AM -11.2129 -58.9717 137° Southeast  Level FlightAware Approximate
04:27AM -11.3099 -58.8805 137° Southeast  Level FlightAware Approximate
04:28AM -11.4069 -58.7892 137° Southeast  Level FlightAware Approximate
04:29AM -11.5038 -58.6979 137° Southeast  Level FlightAware Approximate
04:30AM -11.6008 -58.6065 137° Southeast  Level FlightAware Approximate
04:31AM -11.6977 -58.5150 137° Southeast  Level FlightAware Approximate
04:32AM -11.7945 -58.4235 137° Southeast  Level FlightAware Approximate
04:33AM -11.8914 -58.3319 137° Southeast  Level FlightAware Approximate
04:34AM -11.9882 -58.2402 137° Southeast  Level FlightAware Approximate
04:35AM -12.0850 -58.1485 137° Southeast  Level FlightAware Approximate
04:36AM -12.1817 -58.0567 137° Southeast  Level FlightAware Approximate
04:37AM -12.2784 -57.9649 137° Southeast  Level FlightAware Approximate
04:38AM -12.3751 -57.8729 137° Southeast  Level FlightAware Approximate
04:39AM -12.4718 -57.7809 137° Southeast  Level FlightAware Approximate
04:40AM -12.5684 -57.6889 137° Southeast  Level FlightAware Approximate
04:41AM -12.6650 -57.5967 137° Southeast  Level FlightAware Approximate
04:42AM -12.7615 -57.5046 137° Southeast  Level FlightAware Approximate
04:43AM -12.8581 -57.4123 137° Southeast  Level FlightAware Approximate
04:44AM -12.9546 -57.3199 137° Southeast  Level FlightAware Approximate
04:45AM -13.0510 -57.2275 137° Southeast  Level FlightAware Approximate
04:46AM -13.1475 -57.1350 137° Southeast  Level FlightAware Approximate
04:47AM -13.2439 -57.0425 137° Southeast  Level FlightAware Approximate
04:48AM -13.3402 -56.9498 137° Southeast  Level FlightAware Approximate
04:49AM -13.4366 -56.8571 137° Southeast  Level FlightAware Approximate
04:50AM -13.5329 -56.7643 137° Southeast  Level FlightAware Approximate
04:51AM -13.6291 -56.6715 137° Southeast  Level FlightAware Approximate
04:52AM -13.7254 -56.5785 137° Southeast  Level FlightAware Approximate
04:53AM -13.8215 -56.4855 137° Southeast  Level FlightAware Approximate
04:54AM -13.9177 -56.3924 137° Southeast  Level FlightAware Approximate
04:55AM -14.0138 -56.2993 137° Southeast  Level FlightAware Approximate
04:56AM -14.1099 -56.2060 137° Southeast  Level FlightAware Approximate
04:57AM -14.2060 -56.1127 137° Southeast  Level FlightAware Approximate
04:58AM -14.3020 -56.0193 137° Southeast  Level FlightAware Approximate
04:59AM -14.3980 -55.9258 137° Southeast  Level FlightAware Approximate
05:00AM -14.4939 -55.8323 137° Southeast  Level FlightAware Approximate
05:01AM -14.5898 -55.7386 137° Southeast  Level FlightAware Approximate
05:02AM -14.6857 -55.6449 137° Southeast  Level FlightAware Approximate
05:03AM -14.7815 -55.5511 137° Southeast  Level FlightAware Approximate
05:04AM -14.8773 -55.4572 137° Southeast  Level FlightAware Approximate
05:05AM -14.9731 -55.3633 137° Southeast  Level FlightAware Approximate
05:06AM -15.0688 -55.2692 137° Southeast  Level FlightAware Approximate
05:07AM -15.1644 -55.1750 136° Southeast  Level FlightAware Approximate
05:08AM -15.2601 -55.0808 136° Southeast  Level FlightAware Approximate
05:09AM -15.3557 -54.9865 136° Southeast  Level FlightAware Approximate
05:10AM -15.4513 -54.8921 136° Southeast  Level FlightAware Approximate
05:11AM -15.5468 -54.7976 136° Southeast  Level FlightAware Approximate
05:12AM -15.6423 -54.7030 136° Southeast  Level FlightAware Approximate
05:13AM -15.7377 -54.6084 136° Southeast  Level FlightAware Approximate
05:14AM -15.8331 -54.5136 136° Southeast  Level FlightAware Approximate
05:15AM -15.9284 -54.4188 136° Southeast  Level FlightAware Approximate
05:16AM -16.0238 -54.3239 136° Southeast  Level FlightAware Approximate
05:17AM -16.1190 -54.2289 136° Southeast  Level FlightAware Approximate
05:18AM -16.2143 -54.1337 136° Southeast  Level FlightAware Approximate
05:19AM -16.3095 -54.0385 136° Southeast  Level FlightAware Approximate
05:20AM -16.4046 -53.9432 136° Southeast  Level FlightAware Approximate
05:21AM -16.4997 -53.8479 136° Southeast  Level FlightAware Approximate
05:22AM -16.5948 -53.7524 136° Southeast  Level FlightAware Approximate
05:23AM -16.6898 -53.6568 136° Southeast  Level FlightAware Approximate
05:24AM -16.7847 -53.5611 136° Southeast  Level FlightAware Approximate
05:25AM -16.8797 -53.4654 136° Southeast  Level FlightAware Approximate
05:26AM -16.9746 -53.3695 136° Southeast  Level FlightAware Approximate
05:27AM -17.0694 -53.2735 136° Southeast  Level FlightAware Approximate
05:28AM -17.1642 -53.1775 136° Southeast  Level FlightAware Approximate
05:29AM -17.2589 -53.0813 136° Southeast  Level FlightAware Approximate
05:30AM -17.3536 -52.9850 136° Southeast  Level FlightAware Approximate
05:31AM -17.4483 -52.8887 136° Southeast  Level FlightAware Approximate
05:32AM -17.5429 -52.7922 136° Southeast  Level FlightAware Approximate
05:33AM -17.6375 -52.6957 136° Southeast  Level FlightAware Approximate
05:34AM -17.7320 -52.5990 136° Southeast  Level FlightAware Approximate
05:35AM -17.8265 -52.5022 136° Southeast  Level FlightAware Approximate
05:36AM -17.9210 -52.4052 136° Southeast  Level FlightAware Approximate
05:37AM -18.0156 -52.3081 136° Southeast  Level FlightAware Approximate
05:38AM -18.1101 -52.2108 136° Southeast  Level FlightAware Approximate
05:39AM -18.2045 -52.1135 136° Southeast  Level FlightAware Approximate
05:40AM -18.2989 -52.0160 136° Southeast  Level FlightAware Approximate
05:41AM -18.3932 -51.9185 136° Southeast  Level FlightAware Approximate
05:42AM -18.4875 -51.8208 136° Southeast  Level FlightAware Approximate
05:43AM -18.5818 -51.7230 135° Southeast  Level FlightAware Approximate
05:44AM -18.6760 -51.6251 135° Southeast  Level FlightAware Approximate
05:45AM -18.7701 -51.5272 135° Southeast  Level FlightAware Approximate
05:45AM -19.3040 -50.3790 135° Southeast 477 549 39,000  Level FlightAware
05:46AM -18.8642 -51.4291 135° Southeast  Level FlightAware Approximate
05:46AM -19.4300 -50.2610 139° Southeast 477 549 39,000  Level FlightAware
05:47AM -19.4570 -50.2290 132° Southeast 476 548 39,000  Level FlightAware
05:48AM -19.4960 -50.1980 143° Southeast 476 548 39,000  Level FlightAware
05:48AM -19.6320 -50.0570 136° Southeast 39,000  Level FlightAware
05:49AM -19.4940 -50.1990 316° Northwest 479 551 39,000  Level FlightAware
05:50AM -19.8040 -49.8900 137° Southeast 482 555 39,000  Level FlightAware
05:51AM -19.8910 -49.8040 137° Southeast 481 554 39,000  Level FlightAware
05:51AM -19.9520 -49.7450 138° Southeast 479 551 39,000  Level FlightAware
05:52AM -19.9960 -49.7010 137° Southeast 479 551 39,000  Level FlightAware
05:53AM -20.1130 -49.5870 138° Southeast 479 551 39,000  Level FlightAware
05:54AM -20.1960 -49.5050 137° Southeast 476 548 39,000  Level FlightAware
05:55AM -20.2640 -49.4380 137° Southeast 473 544 39,000  Level FlightAware
05:55AM -20.3510 -49.3520 137° Southeast 475 547 39,000  Level FlightAware
05:56AM -20.4270 -49.2770 137° Southeast 475 547 39,000 -1,020 Level FlightAware
05:58AM -20.5610 -49.1440 137° Southeast 39,000 -1,020 Level FlightAware
05:58AM -20.6070 -49.0980 137° Southeast 39,000 -1,080 Level FlightAware
05:59AM -20.7040 -49.0020 137° Southeast 39,000 -1,080 Level FlightAware
06:00AM -20.7520 -48.9530 136° Southeast 39,000 -1,080 Level FlightAware
06:00AM -20.8240 -48.8810 137° Southeast 39,000 -1,140 Level FlightAware
06:02AM -21.0130 -48.6920 137° Southeast 39,000 -1,140 Level FlightAware
06:03AM -21.0800 -48.6250 137° Southeast 39,000 -1,200 Level FlightAware
06:04AM -21.1580 -48.5470 137° Southeast 39,000 -1,260 Level FlightAware
06:04AM -21.2090 -48.4950 136° Southeast 39,000 -1,260 Level FlightAware
06:05AM -21.3120 -48.3910 137° Southeast 39,000 -1,320 Level FlightAware
06:07AM -21.4440 -48.2580 137° Southeast 39,000 -1,380 Level FlightAware
06:07AM -21.5020 -48.1990 137° Southeast 39,000 -1,440 Level FlightAware
06:08AM -21.5710 -48.1290 137° Southeast 39,000 -1,440 Level FlightAware
06:09AM -21.6390 -48.0600 137° Southeast 39,000 -1,500 Level FlightAware
06:09AM -21.7190 -47.9790 137° Southeast 39,000 -1,560 Level FlightAware
06:10AM -21.7950 -47.9010 136° Southeast 38,100 -1,560 Descending FlightAware
06:11AM -21.8620 -47.8330 137° Southeast 37,100 -1,620 Descending FlightAware
06:12AM -21.9810 -47.7110 136° Southeast 33,900 -1,620 Descending FlightAware
06:13AM -22.0430 -47.6480 137° Southeast 32,500 -1,560 Descending FlightAware
06:13AM -22.1050 -47.5840 136° Southeast 31,100 -1,500 Descending FlightAware
06:14AM -22.1920 -47.4950 137° Southeast 29,200 -1,500 Descending FlightAware
06:15AM -22.2380 -47.4470 136° Southeast 28,200 -1,440 Descending FlightAware
06:15AM -22.2980 -47.3860 137° Southeast 26,900 -1,440 Descending FlightAware
06:16AM -22.3590 -47.3220 136° Southeast 25,600 -1,440 Descending FlightAware
06:17AM -22.4040 -47.2760 137° Southeast 24,600 -1,380 Descending FlightAware
06:17AM -22.4710 -47.2070 136° Southeast 23,100 -1,380 Descending FlightAware
06:19AM -22.6160 -47.0780 141° Southeast 19,900 -1,380 Descending FlightAware
06:20AM -22.7050 -47.0400 159° South 18,300 -1,260 Descending FlightAware
06:21AM -22.8010 -47.0000 159° South 16,500 -1,260 Descending FlightAware
06:21AM -22.8710 -46.9700 158° South 15,200 -1,200 Descending FlightAware
06:23AM -22.9890 -46.9200 159° South 12,700 -1,140 Descending FlightAware
06:23AM -23.0650 -46.8870 158° South 11,200 -1,020 Descending FlightAware
06:24AM -23.1380 -46.8560 159° South 9,900 -960 Descending FlightAware
06:24AM -23.1760 -46.8400 159° South 9,800 -840 Descending FlightAware
06:25AM -23.2090 -46.8260 159° South 9,800 -900 Level FlightAware
06:27AM -23.3307 -46.6318 137° Southeast  Level Estimated
06:27AM -23.3300 -46.7740 137° Southeast 7,900  Level FlightAware
06:27AM -23.3520 -46.7650 159° South 7,500 -900 Descending FlightAware
06:27AM -23.3780 -46.7520 155° Southeast 6,900 -900 Descending FlightAware
06:28AM -23.3990 -46.7350 143° Southeast 6,500 -840 Descending FlightAware
06:28AM -23.4150 -46.7200 139° Southeast 6,000 -840 Descending FlightAware
06:29AM -23.4580 -46.6740 136° Southeast 5,200 -780 Descending FlightAware
06:30AM -23.4700 -46.6480 117° Southeast 4,700 -720 Descending FlightAware
06:30AM -23.4810 -46.6200 113° Southeast 4,500 -660 Descending FlightAware
06:31AM -23.4760 -46.5860 81° East 4,300 -720 Descending FlightAware
06:31AM -23.4720 -46.5710 74° East 4,000 -840 Descending FlightAware
06:32AM -23.4640 -46.5410 74° East 3,400 -780 Descending FlightAware
06:32AM -23.4600 -46.5230 76° East 3,100 -720 Descending FlightAware
06:32AM -23.4540 -46.5030 72° East 2,700 -660 Descending FlightAware
06:33AM -23.4500 -46.4870 75° East 2,500 -480 Descending FlightAware